sensor_id;sensor_type;location;lat;lon;timestamp;pressure;altitude;pressure_sealevel;temperature;humidity
64967;BME280;51710;38.732;-121.358;2023-02-26T00:01:22;100880.38;;;9.95;68.57
64967;BME280;51710;38.732;-121.358;2023-02-26T00:03:53;100880.00;;;9.90;68.87
64967;BME280;51710;38.732;-121.358;2023-02-26T00:06:20;100875.66;;;9.89;68.85
64967;BME280;51710;38.732;-121.358;2023-02-26T00:08:47;100870.06;;;9.92;69.01
64967;BME280;51710;38.732;-121.358;2023-02-26T00:11:14;100870.59;;;9.95;68.85
64967;BME280;51710;38.732;-121.358;2023-02-26T00:13:42;100864.44;;;9.95;68.94
64967;BME280;51710;38.732;-121.358;2023-02-26T00:16:29;100865.00;;;9.89;68.93
64967;BME280;51710;38.732;-121.358;2023-02-26T00:18:57;100867.97;;;9.86;69.22
64967;BME280;51710;38.732;-121.358;2023-02-26T00:21:24;100879.63;;;9.85;69.08
64967;BME280;51710;38.732;-121.358;2023-02-26T00:23:52;100871.22;;;9.80;68.98
64967;BME280;51710;38.732;-121.358;2023-02-26T00:26:19;100871.22;;;9.80;69.00
64967;BME280;51710;38.732;-121.358;2023-02-26T00:28:45;100867.59;;;9.81;69.05
64967;BME280;51710;38.732;-121.358;2023-02-26T00:31:14;100874.88;;;9.79;69.12
64967;BME280;51710;38.732;-121.358;2023-02-26T00:33:41;100864.25;;;9.79;69.37
64967;BME280;51710;38.732;-121.358;2023-02-26T00:39:06;100852.84;;;9.69;68.87
64967;BME280;51710;38.732;-121.358;2023-02-26T00:41:35;100857.06;;;9.62;69.14
64967;BME280;51710;38.732;-121.358;2023-02-26T00:44:03;100853.16;;;9.56;69.83
64967;BME280;51710;38.732;-121.358;2023-02-26T00:51:48;100843.63;;;9.63;69.66
64967;BME280;51710;38.732;-121.358;2023-02-26T00:54:22;100840.25;;;9.61;70.00
64967;BME280;51710;38.732;-121.358;2023-02-26T00:56:49;100848.41;;;9.60;70.04
64967;BME280;51710;38.732;-121.358;2023-02-26T00:59:17;100844.81;;;9.51;70.25
64967;BME280;51710;38.732;-121.358;2023-02-26T01:01:44;100841.47;;;9.40;70.08
64967;BME280;51710;38.732;-121.358;2023-02-26T01:04:11;100855.75;;;9.39;69.94
64967;BME280;51710;38.732;-121.358;2023-02-26T01:06:45;100838.19;;;9.28;70.18
64967;BME280;51710;38.732;-121.358;2023-02-26T01:09:32;100837.63;;;9.25;71.06
64967;BME280;51710;38.732;-121.358;2023-02-26T01:12:02;100846.59;;;9.24;71.19
64967;BME280;51710;38.732;-121.358;2023-02-26T01:14:30;100861.56;;;9.25;71.03
64967;BME280;51710;38.732;-121.358;2023-02-26T01:19:52;100851.47;;;9.28;71.28
64967;BME280;51710;38.732;-121.358;2023-02-26T01:22:34;100859.03;;;9.23;70.80
64967;BME280;51710;38.732;-121.358;2023-02-26T01:25:08;100868.44;;;9.18;71.14
64967;BME280;51710;38.732;-121.358;2023-02-26T01:27:35;100866.75;;;9.17;70.85
64967;BME280;51710;38.732;-121.358;2023-02-26T01:30:03;100867.31;;;9.10;70.74
64967;BME280;51710;38.732;-121.358;2023-02-26T01:35:53;100853.66;;;9.05;71.11
64967;BME280;51710;38.732;-121.358;2023-02-26T01:41:29;100868.47;;;8.98;71.22
64967;BME280;51710;38.732;-121.358;2023-02-26T01:44:12;100865.97;;;8.97;71.17
64967;BME280;51710;38.732;-121.358;2023-02-26T01:49:37;100877.44;;;8.97;71.62
64967;BME280;51710;38.732;-121.358;2023-02-26T01:52:06;100878.41;;;8.96;71.25
64967;BME280;51710;38.732;-121.358;2023-02-26T01:54:37;100882.75;;;8.97;71.60
64967;BME280;51710;38.732;-121.358;2023-02-26T01:57:08;100895.03;;;8.98;71.70
64967;BME280;51710;38.732;-121.358;2023-02-26T01:59:38;100888.22;;;8.96;71.81
64967;BME280;51710;38.732;-121.358;2023-02-26T02:02:07;100893.38;;;8.97;71.51
64967;BME280;51710;38.732;-121.358;2023-02-26T02:04:35;100890.31;;;8.92;71.97
64967;BME280;51710;38.732;-121.358;2023-02-26T02:07:04;100893.22;;;8.89;72.23
64967;BME280;51710;38.732;-121.358;2023-02-26T02:09:31;100903.16;;;8.87;72.28
64967;BME280;51710;38.732;-121.358;2023-02-26T02:12:22;100903.75;;;8.81;72.76
64967;BME280;51710;38.732;-121.358;2023-02-26T02:15:27;100907.34;;;8.80;72.58
64967;BME280;51710;38.732;-121.358;2023-02-26T02:21:10;100913.81;;;8.78;72.68
64967;BME280;51710;38.732;-121.358;2023-02-26T02:24:12;100912.41;;;8.74;72.54
64967;BME280;51710;38.732;-121.358;2023-02-26T02:26:52;100910.03;;;8.71;72.70
64967;BME280;51710;38.732;-121.358;2023-02-26T02:34:56;100920.09;;;8.67;72.87
64967;BME280;51710;38.732;-121.358;2023-02-26T02:37:29;100922.75;;;8.67;73.15
64967;BME280;51710;38.732;-121.358;2023-02-26T02:42:48;100930.28;;;8.62;72.90
64967;BME280;51710;38.732;-121.358;2023-02-26T02:45:20;100920.78;;;8.60;72.87
64967;BME280;51710;38.732;-121.358;2023-02-26T02:47:52;100933.66;;;8.64;73.32
64967;BME280;51710;38.732;-121.358;2023-02-26T02:50:29;100936.84;;;8.58;73.08
64967;BME280;51710;38.732;-121.358;2023-02-26T02:53:00;100950.00;;;8.50;73.53
64967;BME280;51710;38.732;-121.358;2023-02-26T02:55:37;100955.03;;;8.44;73.70
64967;BME280;51710;38.732;-121.358;2023-02-26T02:58:11;100947.16;;;8.33;74.41
64967;BME280;51710;38.732;-121.358;2023-02-26T03:00:42;100965.88;;;8.31;74.99
64967;BME280;51710;38.732;-121.358;2023-02-26T03:05:49;100956.66;;;8.35;75.24
64967;BME280;51710;38.732;-121.358;2023-02-26T03:08:18;100953.31;;;8.33;75.50
64967;BME280;51710;38.732;-121.358;2023-02-26T03:10:46;100953.19;;;8.35;75.43
64967;BME280;51710;38.732;-121.358;2023-02-26T03:13:21;100947.75;;;8.36;75.62
64967;BME280;51710;38.732;-121.358;2023-02-26T03:24:22;100955.28;;;8.50;75.66
64967;BME280;51710;38.732;-121.358;2023-02-26T03:29:49;100960.84;;;8.47;74.85
64967;BME280;51710;38.732;-121.358;2023-02-26T03:32:30;100963.78;;;8.44;74.61
64967;BME280;51710;38.732;-121.358;2023-02-26T03:37:49;100966.88;;;8.40;74.87
64967;BME280;51710;38.732;-121.358;2023-02-26T03:42:54;100990.91;;;8.38;74.76
64967;BME280;51710;38.732;-121.358;2023-02-26T03:45:29;100995.22;;;8.39;74.37
64967;BME280;51710;38.732;-121.358;2023-02-26T03:47:58;100997.16;;;8.37;74.19
64967;BME280;51710;38.732;-121.358;2023-02-26T03:50:42;101002.03;;;8.32;74.34
64967;BME280;51710;38.732;-121.358;2023-02-26T03:53:10;101008.75;;;8.36;74.36
64967;BME280;51710;38.732;-121.358;2023-02-26T03:55:42;101017.69;;;8.35;74.28
64967;BME280;51710;38.732;-121.358;2023-02-26T03:58:10;101012.38;;;8.35;74.47
64967;BME280;51710;38.732;-121.358;2023-02-26T04:00:37;101021.03;;;8.37;74.49
64967;BME280;51710;38.732;-121.358;2023-02-26T04:03:21;101017.44;;;8.38;74.11
64967;BME280;51710;38.732;-121.358;2023-02-26T04:05:51;101011.28;;;8.38;74.40
64967;BME280;51710;38.732;-121.358;2023-02-26T04:08:19;101014.06;;;8.36;74.13
64967;BME280;51710;38.732;-121.358;2023-02-26T04:13:17;101011.94;;;8.30;74.36
64967;BME280;51710;38.732;-121.358;2023-02-26T04:15:43;101021.97;;;8.27;74.15
64967;BME280;51710;38.732;-121.358;2023-02-26T04:18:10;101034.44;;;8.26;74.52
64967;BME280;51710;38.732;-121.358;2023-02-26T04:20:36;101030.78;;;8.27;74.16
64967;BME280;51710;38.732;-121.358;2023-02-26T04:23:02;101034.53;;;8.25;74.35
64967;BME280;51710;38.732;-121.358;2023-02-26T04:25:28;101035.38;;;8.25;74.19
64967;BME280;51710;38.732;-121.358;2023-02-26T04:27:55;101038.75;;;8.27;74.49
64967;BME280;51710;38.732;-121.358;2023-02-26T04:30:23;101043.91;;;8.29;74.16
64967;BME280;51710;38.732;-121.358;2023-02-26T04:32:49;101051.03;;;8.28;74.26
64967;BME280;51710;38.732;-121.358;2023-02-26T04:35:15;101052.00;;;8.27;74.52
64967;BME280;51710;38.732;-121.358;2023-02-26T04:37:41;101050.22;;;8.28;74.39
64967;BME280;51710;38.732;-121.358;2023-02-26T04:40:08;101042.13;;;8.29;74.33
64967;BME280;51710;38.732;-121.358;2023-02-26T04:42:35;101028.84;;;8.29;74.38
64967;BME280;51710;38.732;-121.358;2023-02-26T04:45:01;101039.47;;;8.29;73.83
64967;BME280;51710;38.732;-121.358;2023-02-26T04:47:27;101032.72;;;8.25;74.11
64967;BME280;51710;38.732;-121.358;2023-02-26T04:49:53;101029.34;;;8.23;74.31
64967;BME280;51710;38.732;-121.358;2023-02-26T04:52:20;101017.81;;;8.24;74.11
64967;BME280;51710;38.732;-121.358;2023-02-26T04:54:46;101026.47;;;8.26;74.32
64967;BME280;51710;38.732;-121.358;2023-02-26T04:57:12;101038.88;;;8.26;74.02
64967;BME280;51710;38.732;-121.358;2023-02-26T04:59:39;101041.41;;;8.27;74.20
64967;BME280;51710;38.732;-121.358;2023-02-26T05:02:05;101049.50;;;8.26;73.97
64967;BME280;51710;38.732;-121.358;2023-02-26T05:04:31;101051.16;;;8.27;74.20
64967;BME280;51710;38.732;-121.358;2023-02-26T05:06:58;101050.34;;;8.26;73.84
64967;BME280;51710;38.732;-121.358;2023-02-26T05:09:24;101048.66;;;8.25;73.72
64967;BME280;51710;38.732;-121.358;2023-02-26T05:11:50;101033.13;;;8.21;74.14
64967;BME280;51710;38.732;-121.358;2023-02-26T05:14:16;101026.13;;;8.20;74.27
64967;BME280;51710;38.732;-121.358;2023-02-26T05:16:43;101015.50;;;8.20;73.96
64967;BME280;51710;38.732;-121.358;2023-02-26T05:19:09;101021.94;;;8.17;74.34
64967;BME280;51710;38.732;-121.358;2023-02-26T05:21:35;101012.16;;;8.18;73.99
64967;BME280;51710;38.732;-121.358;2023-02-26T05:24:02;101007.56;;;8.20;74.04
64967;BME280;51710;38.732;-121.358;2023-02-26T05:26:28;101005.03;;;8.18;73.91
64967;BME280;51710;38.732;-121.358;2023-02-26T05:28:55;101025.53;;;8.16;73.96
64967;BME280;51710;38.732;-121.358;2023-02-26T05:31:21;101039.78;;;8.15;74.22
64967;BME280;51710;38.732;-121.358;2023-02-26T05:33:47;101042.44;;;8.15;74.06
64967;BME280;51710;38.732;-121.358;2023-02-26T05:36:14;101045.38;;;8.12;74.25
64967;BME280;51710;38.732;-121.358;2023-02-26T05:38:40;101048.03;;;8.12;74.53
64967;BME280;51710;38.732;-121.358;2023-02-26T05:41:06;101058.50;;;8.14;74.29
64967;BME280;51710;38.732;-121.358;2023-02-26T05:43:32;101054.16;;;8.13;74.57
64967;BME280;51710;38.732;-121.358;2023-02-26T05:45:59;101056.94;;;8.11;74.51
64967;BME280;51710;38.732;-121.358;2023-02-26T05:48:25;101052.91;;;8.07;74.47
64967;BME280;51710;38.732;-121.358;2023-02-26T05:50:51;101055.06;;;8.02;74.70
64967;BME280;51710;38.732;-121.358;2023-02-26T05:53:19;101047.25;;;8.00;74.88
64967;BME280;51710;38.732;-121.358;2023-02-26T05:55:45;101059.69;;;8.00;74.88
64967;BME280;51710;38.732;-121.358;2023-02-26T05:58:11;101063.31;;;7.99;75.31
64967;BME280;51710;38.732;-121.358;2023-02-26T06:00:38;101057.06;;;8.00;75.42
64967;BME280;51710;38.732;-121.358;2023-02-26T06:03:04;101056.06;;;8.01;75.02
64967;BME280;51710;38.732;-121.358;2023-02-26T06:05:31;101062.06;;;8.03;74.96
64967;BME280;51710;38.732;-121.358;2023-02-26T06:07:57;101057.72;;;8.02;75.01
64967;BME280;51710;38.732;-121.358;2023-02-26T06:10:24;101059.56;;;8.02;75.13
64967;BME280;51710;38.732;-121.358;2023-02-26T06:12:50;101058.84;;;7.99;75.27
64967;BME280;51710;38.732;-121.358;2023-02-26T06:15:16;101076.28;;;8.02;75.30
64967;BME280;51710;38.732;-121.358;2023-02-26T06:17:43;101084.16;;;8.04;75.55
64967;BME280;51710;38.732;-121.358;2023-02-26T06:20:09;101087.75;;;8.02;75.12
64967;BME280;51710;38.732;-121.358;2023-02-26T06:22:37;101084.25;;;8.02;75.41
64967;BME280;51710;38.732;-121.358;2023-02-26T06:25:04;101087.59;;;8.04;75.69
64967;BME280;51710;38.732;-121.358;2023-02-26T06:27:30;101098.22;;;8.04;75.34
64967;BME280;51710;38.732;-121.358;2023-02-26T06:29:56;101104.66;;;8.02;75.30
64967;BME280;51710;38.732;-121.358;2023-02-26T06:32:23;101102.94;;;8.00;75.40
64967;BME280;51710;38.732;-121.358;2023-02-26T06:34:49;101107.44;;;8.00;75.42
64967;BME280;51710;38.732;-121.358;2023-02-26T06:37:15;101102.38;;;7.97;75.60
64967;BME280;51710;38.732;-121.358;2023-02-26T06:39:41;101102.38;;;7.97;76.19
64967;BME280;51710;38.732;-121.358;2023-02-26T06:42:08;101083.66;;;7.98;75.60
64967;BME280;51710;38.732;-121.358;2023-02-26T06:44:34;101093.47;;;7.98;75.75
64967;BME280;51710;38.732;-121.358;2023-02-26T06:47:01;101090.09;;;7.96;76.03
64967;BME280;51710;38.732;-121.358;2023-02-26T06:49:27;101090.09;;;7.96;76.38
64967;BME280;51710;38.732;-121.358;2023-02-26T06:51:53;101093.47;;;7.98;76.09
64967;BME280;51710;38.732;-121.358;2023-02-26T06:54:21;101084.53;;;7.99;75.89
64967;BME280;51710;38.732;-121.358;2023-02-26T06:56:51;101085.75;;;7.95;76.17
64967;BME280;51710;38.732;-121.358;2023-02-26T06:59:17;101083.50;;;7.90;76.25
64967;BME280;51710;38.732;-121.358;2023-02-26T07:01:45;101079.19;;;7.89;76.48
64967;BME280;51710;38.732;-121.358;2023-02-26T07:04:12;101072.03;;;7.90;76.77
64967;BME280;51710;38.732;-121.358;2023-02-26T07:06:41;101065.34;;;7.86;76.59
64967;BME280;51710;38.732;-121.358;2023-02-26T07:09:11;101064.38;;;7.87;76.82
64967;BME280;51710;38.732;-121.358;2023-02-26T07:11:38;101053.91;;;7.85;76.78
64967;BME280;51710;38.732;-121.358;2023-02-26T07:14:05;101054.03;;;7.84;77.37
64967;BME280;51710;38.732;-121.358;2023-02-26T07:16:32;101060.28;;;7.83;77.11
64967;BME280;51710;38.732;-121.358;2023-02-26T07:18:58;101054.97;;;7.83;77.67
64967;BME280;51710;38.732;-121.358;2023-02-26T07:21:24;101062.69;;;7.86;77.42
64967;BME280;51710;38.732;-121.358;2023-02-26T07:23:51;101056.53;;;7.85;77.56
64967;BME280;51710;38.732;-121.358;2023-02-26T07:26:17;101050.41;;;7.85;77.62
64967;BME280;51710;38.732;-121.358;2023-02-26T07:28:43;101052.34;;;7.83;77.37
64967;BME280;51710;38.732;-121.358;2023-02-26T07:31:09;101058.63;;;7.82;77.57
64967;BME280;51710;38.732;-121.358;2023-02-26T07:33:36;101059.59;;;7.81;77.63
64967;BME280;51710;38.732;-121.358;2023-02-26T07:36:05;101064.91;;;7.81;78.03
64967;BME280;51710;38.732;-121.358;2023-02-26T07:38:31;101055.13;;;7.81;77.97
64967;BME280;51710;38.732;-121.358;2023-02-26T07:40:57;101050.53;;;7.83;78.13
64967;BME280;51710;38.732;-121.358;2023-02-26T07:43:24;101048.72;;;7.84;78.03
64967;BME280;51710;38.732;-121.358;2023-02-26T07:45:51;101041.63;;;7.84;78.14
64967;BME280;51710;38.732;-121.358;2023-02-26T07:48:18;101028.47;;;7.83;78.17
64967;BME280;51710;38.732;-121.358;2023-02-26T07:50:44;101036.44;;;7.83;78.20
64967;BME280;51710;38.732;-121.358;2023-02-26T07:53:10;101035.47;;;7.84;78.19
64967;BME280;51710;38.732;-121.358;2023-02-26T07:55:36;101034.75;;;7.82;78.16
64967;BME280;51710;38.732;-121.358;2023-02-26T07:58:03;101033.09;;;7.81;77.96
64967;BME280;51710;38.732;-121.358;2023-02-26T08:00:31;101031.41;;;7.80;78.58
64967;BME280;51710;38.732;-121.358;2023-02-26T08:02:57;101036.69;;;7.80;78.08
64967;BME280;51710;38.732;-121.358;2023-02-26T08:05:25;101038.50;;;7.79;78.48
64967;BME280;51710;38.732;-121.358;2023-02-26T08:07:54;101055.53;;;7.77;78.49
64967;BME280;51710;38.732;-121.358;2023-02-26T08:10:20;101057.34;;;7.76;78.25
64967;BME280;51710;38.732;-121.358;2023-02-26T08:12:46;101055.53;;;7.77;78.51
64967;BME280;51710;38.732;-121.358;2023-02-26T08:15:13;101063.47;;;7.77;78.83
64967;BME280;51710;38.732;-121.358;2023-02-26T08:17:40;101047.31;;;7.80;78.24
64967;BME280;51710;38.732;-121.358;2023-02-26T08:20:07;101033.09;;;7.81;78.50
64967;BME280;51710;38.732;-121.358;2023-02-26T08:22:34;101045.38;;;7.82;79.06
64967;BME280;51710;38.732;-121.358;2023-02-26T08:25:00;101055.97;;;7.82;78.63
64967;BME280;51710;38.732;-121.358;2023-02-26T08:27:27;101063.91;;;7.82;79.22
64967;BME280;51710;38.732;-121.358;2023-02-26T08:29:53;101065.59;;;7.83;78.91
64967;BME280;51710;38.732;-121.358;2023-02-26T08:32:19;101058.47;;;7.83;78.60
64967;BME280;51710;38.732;-121.358;2023-02-26T08:34:47;101060.19;;;7.84;78.91
64967;BME280;51710;38.732;-121.358;2023-02-26T08:37:14;101068.38;;;7.81;78.74
64967;BME280;51710;38.732;-121.358;2023-02-26T08:39:40;101061.41;;;7.80;79.12
64967;BME280;51710;38.732;-121.358;2023-02-26T08:42:08;101071.16;;;7.80;78.90
64967;BME280;51710;38.732;-121.358;2023-02-26T08:44:34;101068.50;;;7.80;79.08
64967;BME280;51710;38.732;-121.358;2023-02-26T08:47:01;101055.13;;;7.81;79.43
64967;BME280;51710;38.732;-121.358;2023-02-26T08:49:28;101060.56;;;7.80;79.49
64967;BME280;51710;38.732;-121.358;2023-02-26T08:51:54;101073.69;;;7.81;79.78
64967;BME280;51710;38.732;-121.358;2023-02-26T08:54:21;101070.66;;;7.86;79.60
64967;BME280;51710;38.732;-121.358;2023-02-26T08:56:47;101066.03;;;7.88;79.54
64967;BME280;51710;38.732;-121.358;2023-02-26T08:59:13;101074.84;;;7.88;79.56
64967;BME280;51710;38.732;-121.358;2023-02-26T09:01:40;101073.88;;;7.89;79.25
64967;BME280;51710;38.732;-121.358;2023-02-26T09:04:06;101070.25;;;7.90;79.60
64967;BME280;51710;38.732;-121.358;2023-02-26T09:06:32;101080.00;;;7.90;79.75
64967;BME280;51710;38.732;-121.358;2023-02-26T09:08:59;101085.44;;;7.88;79.29
64967;BME280;51710;38.732;-121.358;2023-02-26T09:11:25;101084.50;;;7.89;79.13
64967;BME280;51710;38.732;-121.358;2023-02-26T09:13:51;101083.63;;;7.89;79.59
64967;BME280;51710;38.732;-121.358;2023-02-26T09:16:17;101075.81;;;7.87;79.20
64967;BME280;51710;38.732;-121.358;2023-02-26T09:18:43;101066.16;;;7.86;79.58
64967;BME280;51710;38.732;-121.358;2023-02-26T09:21:10;101077.47;;;7.88;79.35
64967;BME280;51710;38.732;-121.358;2023-02-26T09:23:37;101066.88;;;7.88;79.35
64967;BME280;51710;38.732;-121.358;2023-02-26T09:26:04;101075.69;;;7.89;78.95
64967;BME280;51710;38.732;-121.358;2023-02-26T09:28:30;101073.31;;;7.86;79.64
64967;BME280;51710;38.732;-121.358;2023-02-26T09:30:56;101068.13;;;7.84;79.08
64967;BME280;51710;38.732;-121.358;2023-02-26T09:33:23;101075.81;;;7.87;79.50
64967;BME280;51710;38.732;-121.358;2023-02-26T09:35:50;101072.31;;;7.87;79.35
64967;BME280;51710;38.732;-121.358;2023-02-26T09:38:17;101076.41;;;7.91;79.62
64967;BME280;51710;38.732;-121.358;2023-02-26T09:45:56;101083.22;;;7.93;79.14
64967;BME280;51710;38.732;-121.358;2023-02-26T09:48:25;101085.44;;;7.88;79.30
64967;BME280;51710;38.732;-121.358;2023-02-26T09:50:55;101083.63;;;7.89;79.23
64967;BME280;51710;38.732;-121.358;2023-02-26T09:53:30;101090.59;;;7.90;79.58
64967;BME280;51710;38.732;-121.358;2023-02-26T09:56:21;101094.25;;;7.89;79.74
64967;BME280;51710;38.732;-121.358;2023-02-26T09:58:49;101093.38;;;7.88;79.60
64967;BME280;51710;38.732;-121.358;2023-02-26T10:04:25;101099.84;;;7.95;79.68
64967;BME280;51710;38.732;-121.358;2023-02-26T10:10:09;101090.03;;;7.86;79.52
64967;BME280;51710;38.732;-121.358;2023-02-26T10:12:39;101090.28;;;7.83;80.08
64967;BME280;51710;38.732;-121.358;2023-02-26T10:15:12;101088.75;;;7.81;80.01
64967;BME280;51710;38.732;-121.358;2023-02-26T10:25:56;101101.63;;;7.85;80.31
64967;BME280;51710;38.732;-121.358;2023-02-26T10:31:08;101108.44;;;7.88;80.22
64967;BME280;51710;38.732;-121.358;2023-02-26T10:37:12;101105.63;;;7.80;80.82
64967;BME280;51710;38.732;-121.358;2023-02-26T10:40:03;101106.03;;;7.75;80.56
64967;BME280;51710;38.732;-121.358;2023-02-26T10:51:19;101092.81;;;7.64;81.70
64967;BME280;51710;38.732;-121.358;2023-02-26T10:56:54;101080.44;;;7.65;81.99
64967;BME280;51710;38.732;-121.358;2023-02-26T10:59:22;101087.66;;;7.63;81.85
64967;BME280;51710;38.732;-121.358;2023-02-26T11:01:50;101087.06;;;7.59;81.97
64967;BME280;51710;38.732;-121.358;2023-02-26T11:04:22;101089.16;;;7.56;82.29
64967;BME280;51710;38.732;-121.358;2023-02-26T11:07:02;101081.19;;;7.56;82.58
64967;BME280;51710;38.732;-121.358;2023-02-26T11:09:36;101068.94;;;7.55;82.45
64967;BME280;51710;38.732;-121.358;2023-02-26T11:14:33;101065.69;;;7.51;82.58
64967;BME280;51710;38.732;-121.358;2023-02-26T11:17:18;101079.75;;;7.52;83.01
64967;BME280;51710;38.732;-121.358;2023-02-26T11:19:55;101076.16;;;7.53;82.85
64967;BME280;51710;38.732;-121.358;2023-02-26T11:22:25;101078.69;;;7.54;82.93
64967;BME280;51710;38.732;-121.358;2023-02-26T11:24:53;101088.44;;;7.54;83.25
64967;BME280;51710;38.732;-121.358;2023-02-26T11:27:24;101087.56;;;7.53;82.98
64967;BME280;51710;38.732;-121.358;2023-02-26T11:29:56;101090.22;;;7.53;83.75
64967;BME280;51710;38.732;-121.358;2023-02-26T11:32:34;101082.53;;;7.50;83.49
64967;BME280;51710;38.732;-121.358;2023-02-26T11:35:06;101083.53;;;7.49;83.90
64967;BME280;51710;38.732;-121.358;2023-02-26T11:37:38;101071.38;;;7.47;83.85
64967;BME280;51710;38.732;-121.358;2023-02-26T11:42:53;101085.72;;;7.44;84.58
64967;BME280;51710;38.732;-121.358;2023-02-26T11:45:21;101099.78;;;7.45;84.61
64967;BME280;51710;38.732;-121.358;2023-02-26T11:47:58;101102.22;;;7.48;84.71
64967;BME280;51710;38.732;-121.358;2023-02-26T11:50:27;101099.28;;;7.51;84.76
64967;BME280;51710;38.732;-121.358;2023-02-26T11:52:56;101101.81;;;7.52;85.00
64967;BME280;51710;38.732;-121.358;2023-02-26T11:55:35;101101.81;;;7.52;85.08
64967;BME280;51710;38.732;-121.358;2023-02-26T11:58:15;101108.19;;;7.50;84.52
64967;BME280;51710;38.732;-121.358;2023-02-26T12:00:42;101105.09;;;7.45;84.99
64967;BME280;51710;38.732;-121.358;2023-02-26T12:03:37;101109.56;;;7.44;85.07
64967;BME280;51710;38.732;-121.358;2023-02-26T12:06:04;101115.47;;;7.48;85.12
64967;BME280;51710;38.732;-121.358;2023-02-26T12:08:37;101112.09;;;7.46;85.39
64967;BME280;51710;38.732;-121.358;2023-02-26T12:14:22;101119.19;;;7.45;85.17
64967;BME280;51710;38.732;-121.358;2023-02-26T12:19:53;101123.63;;;7.45;85.29
64967;BME280;51710;38.732;-121.358;2023-02-26T12:39:41;101144.19;;;7.32;86.52
64967;BME280;51710;38.732;-121.358;2023-02-26T12:53:40;101151.41;;;7.30;87.30
64967;BME280;51710;38.732;-121.358;2023-02-26T13:06:54;101149.50;;;7.21;88.51
64967;BME280;51710;38.732;-121.358;2023-02-26T13:18:33;101111.97;;;7.16;88.56
64967;BME280;51710;38.732;-121.358;2023-02-26T13:21:19;101112.94;;;7.15;88.49
64967;BME280;51710;38.732;-121.358;2023-02-26T13:24:06;101108.47;;;7.15;88.83
64967;BME280;51710;38.732;-121.358;2023-02-26T13:26:34;101116.66;;;7.12;88.29
64967;BME280;51710;38.732;-121.358;2023-02-26T13:31:52;101132.69;;;7.11;88.92
64967;BME280;51710;38.732;-121.358;2023-02-26T13:34:38;101135.34;;;7.11;88.87
64967;BME280;51710;38.732;-121.358;2023-02-26T13:37:21;101129.06;;;7.12;88.32
64967;BME280;51710;38.732;-121.358;2023-02-26T13:45:59;101132.94;;;7.08;88.37
64967;BME280;51710;38.732;-121.358;2023-02-26T13:54:07;101136.81;;;7.04;88.70
64967;BME280;51710;38.732;-121.358;2023-02-26T14:02:02;101148.84;;;7.08;88.91
64967;BME280;51710;38.732;-121.358;2023-02-26T14:04:32;101162.75;;;7.10;88.16
64967;BME280;51710;38.732;-121.358;2023-02-26T14:09:56;101154.72;;;7.11;88.24
64967;BME280;51710;38.732;-121.358;2023-02-26T14:12:33;101169.50;;;7.14;88.05
64967;BME280;51710;38.732;-121.358;2023-02-26T14:17:41;101155.06;;;7.18;87.98
64967;BME280;51710;38.732;-121.358;2023-02-26T14:25:38;101159.84;;;7.24;88.04
64967;BME280;51710;38.732;-121.358;2023-02-26T14:28:56;101158.88;;;7.25;87.86
64967;BME280;51710;38.732;-121.358;2023-02-26T14:31:24;101172.13;;;7.25;87.54
64967;BME280;51710;38.732;-121.358;2023-02-26T14:34:05;101182.97;;;7.22;87.76
64967;BME280;51710;38.732;-121.358;2023-02-26T14:36:43;101188.28;;;7.22;87.76
64967;BME280;51710;38.732;-121.358;2023-02-26T14:39:35;101190.94;;;7.22;88.02
64967;BME280;51710;38.732;-121.358;2023-02-26T14:42:05;101186.31;;;7.24;88.14
64967;BME280;51710;38.732;-121.358;2023-02-26T14:45:07;101181.75;;;7.26;87.92
64967;BME280;51710;38.732;-121.358;2023-02-26T14:47:36;101187.75;;;7.28;87.62
64967;BME280;51710;38.732;-121.358;2023-02-26T14:50:05;101195.84;;;7.26;87.61
64967;BME280;51710;38.732;-121.358;2023-02-26T14:52:51;101196.44;;;7.30;88.10
64967;BME280;51710;38.732;-121.358;2023-02-26T14:58:45;101199.53;;;7.35;87.46
64967;BME280;51710;38.732;-121.358;2023-02-26T15:09:22;101217.81;;;7.38;87.35
64967;BME280;51710;38.732;-121.358;2023-02-26T15:14:34;101223.00;;;7.39;87.33
64967;BME280;51710;38.732;-121.358;2023-02-26T15:20:00;101245.03;;;7.40;87.39
64967;BME280;51710;38.732;-121.358;2023-02-26T15:25:41;101246.50;;;7.44;87.18
64967;BME280;51710;38.732;-121.358;2023-02-26T15:28:14;101240.34;;;7.43;87.06
64967;BME280;51710;38.732;-121.358;2023-02-26T15:30:47;101232.25;;;7.45;87.72
64967;BME280;51710;38.732;-121.358;2023-02-26T15:33:14;101235.63;;;7.47;86.88
64967;BME280;51710;38.732;-121.358;2023-02-26T15:35:47;101240.94;;;7.47;86.89
64967;BME280;51710;38.732;-121.358;2023-02-26T15:38:14;101245.97;;;7.50;86.72
64967;BME280;51710;38.732;-121.358;2023-02-26T15:40:41;101241.53;;;7.50;87.17
64967;BME280;51710;38.732;-121.358;2023-02-26T15:43:09;101241.53;;;7.50;87.25
64967;BME280;51710;38.732;-121.358;2023-02-26T15:45:43;101238.53;;;7.55;87.21
64967;BME280;51710;38.732;-121.358;2023-02-26T15:48:17;101246.47;;;7.55;86.64
64967;BME280;51710;38.732;-121.358;2023-02-26T15:50:48;101253.19;;;7.59;86.37
64967;BME280;51710;38.732;-121.358;2023-02-26T15:53:29;101253.91;;;7.61;86.99
64967;BME280;51710;38.732;-121.358;2023-02-26T15:55:59;101266.16;;;7.62;86.61
64967;BME280;51710;38.732;-121.358;2023-02-26T15:58:36;101261.47;;;7.65;86.74
64967;BME280;51710;38.732;-121.358;2023-02-26T16:01:04;101261.22;;;7.68;86.23
64967;BME280;51710;38.732;-121.358;2023-02-26T16:03:34;101269.91;;;7.70;86.16
64967;BME280;51710;38.732;-121.358;2023-02-26T16:06:01;101269.91;;;7.70;85.86
64967;BME280;51710;38.732;-121.358;2023-02-26T16:08:28;101270.72;;;7.71;86.30